Time;durP1;ratioP1;P1;durP2;ratioP2;P2;SDS_P1;SDS_P2;PMS_P1;PMS_P2;Temp;Humidity;BMP_temperature;BMP_pressure;BME280_temperature;BME280_humidity;BME280_pressure;Samples;Min_cycle;Max_cycle;Signal;HPM_P1;HPM_P2
2023/09/25 00:00:56;;;;;;;1.23;0.30;;;12.40;99.90;;;;;;5119352;27;20470;-75
2023/09/25 00:03:22;;;;;;;0.30;0.20;;;12.40;99.90;;;;;;5078646;28;20048;-76
2023/09/25 00:05:48;;;;;;;0.45;0.32;;;12.50;99.90;;;;;;5063302;28;20036;-74
2023/09/25 00:08:13;;;;;;;1.42;0.85;;;12.50;99.90;;;;;;5079854;28;20044;-76
2023/09/25 00:10:41;;;;;;;0.60;0.30;;;12.50;99.90;;;;;;5081179;28;20040;-76
2023/09/25 00:13:08;;;;;;;3.30;0.50;;;12.50;99.90;;;;;;5079358;28;20051;-76
2023/09/25 00:15:34;;;;;;;0.45;0.20;;;12.50;99.90;;;;;;5082999;28;20044;-77
2023/09/25 00:18:00;;;;;;;1.80;0.47;;;12.50;99.90;;;;;;5119144;27;20048;-76
2023/09/25 00:20:26;;;;;;;0.63;0.30;;;12.40;99.90;;;;;;5109866;27;20185;-76
2023/09/25 00:22:52;;;;;;;0.20;0.20;;;12.50;99.90;;;;;;5079528;28;20054;-76
2023/09/25 00:25:22;;;;;;;0.73;0.22;;;12.40;99.90;;;;;;5074170;28;20051;-76
2023/09/25 00:27:48;;;;;;;0.80;0.17;;;12.40;99.90;;;;;;5114454;27;20201;-76
2023/09/25 00:30:14;;;;;;;0.57;0.38;;;12.40;99.90;;;;;;5106724;27;20511;-76
2023/09/25 00:32:40;;;;;;;0.20;0.20;;;12.30;99.90;;;;;;5074817;28;20494;-75
2023/09/25 00:35:10;;;;;;;2.55;0.68;;;12.30;99.90;;;;;;5073922;28;20040;-76
2023/09/25 00:37:39;;;;;;;0.17;0.17;;;12.20;99.90;;;;;;5072933;28;20566;-76
2023/09/25 00:40:30;;;;;;;0.85;0.30;;;12.20;99.90;;;;;;5076017;28;20056;-74
2023/09/25 00:42:54;;;;;;;2.03;0.50;;;12.20;99.90;;;;;;5076317;28;20032;-76
2023/09/25 00:45:21;;;;;;;2.50;0.30;;;12.10;99.90;;;;;;5106636;27;20085;-76
2023/09/25 00:47:49;;;;;;;2.50;0.50;;;12.00;99.90;;;;;;5115707;27;20397;-75
2023/09/25 00:50:15;;;;;;;0.63;0.20;;;12.00;99.90;;;;;;5106680;27;20052;-75
2023/09/25 00:52:43;;;;;;;1.02;0.40;;;12.00;99.90;;;;;;5076993;28;20044;-75
2023/09/25 00:55:10;;;;;;;5.53;0.52;;;11.90;99.90;;;;;;5105645;27;20129;-76
2023/09/25 00:57:38;;;;;;;0.50;0.30;;;11.90;99.90;;;;;;5108079;27;20036;-75
2023/09/25 01:00:11;;;;;;;2.78;0.38;;;11.90;99.90;;;;;;5079157;28;20036;-76
2023/09/25 01:02:37;;;;;;;1.00;0.50;;;11.80;99.90;;;;;;5097421;28;20036;-76
2023/09/25 01:05:06;;;;;;;0.77;0.30;;;11.80;99.90;;;;;;5108185;27;20431;-75
2023/09/25 01:07:32;;;;;;;0.73;0.47;;;11.80;99.90;;;;;;5072266;28;20036;-74
2023/09/25 01:10:16;;;;;;;0.45;0.30;;;11.70;99.90;;;;;;5077149;28;20376;-75
2023/09/25 01:12:42;;;;;;;0.82;0.63;;;11.70;99.90;;;;;;5110329;27;20040;-76
2023/09/25 01:15:09;;;;;;;0.65;0.47;;;11.70;99.90;;;;;;5074534;28;20040;-76
2023/09/25 01:17:35;;;;;;;0.20;0.20;;;11.70;99.90;;;;;;5107451;27;20056;-76
2023/09/25 01:20:12;;;;;;;1.33;0.25;;;11.70;99.90;;;;;;5076581;28;20035;-75
2023/09/25 01:22:41;;;;;;;1.15;0.43;;;11.70;99.90;;;;;;5075290;28;20036;-75
2023/09/25 01:25:10;;;;;;;1.73;0.93;;;11.70;99.90;;;;;;5076396;28;20039;-75
2023/09/25 01:27:37;;;;;;;0.65;0.40;;;11.80;99.90;;;;;;5094360;28;20043;-75
2023/09/25 01:30:04;;;;;;;0.80;0.40;;;11.80;99.90;;;;;;5077304;28;20036;-75
2023/09/25 01:32:30;;;;;;;0.70;0.28;;;11.80;99.90;;;;;;5080737;28;20449;-75
2023/09/25 01:34:56;;;;;;;0.65;0.40;;;11.70;99.90;;;;;;5073001;28;20113;-75
2023/09/25 01:37:22;;;;;;;4.10;0.70;;;11.80;99.90;;;;;;5072030;28;20186;-75
2023/09/25 01:39:47;;;;;;;0.63;0.40;;;11.80;99.90;;;;;;5076639;28;20036;-74
2023/09/25 01:42:13;;;;;;;0.47;0.35;;;11.80;99.90;;;;;;5080677;28;20087;-75
2023/09/25 01:44:38;;;;;;;1.75;0.52;;;11.80;99.90;;;;;;5076957;28;20044;-75
2023/09/25 01:47:04;;;;;;;0.70;0.50;;;11.80;99.90;;;;;;5082235;28;20214;-75
2023/09/25 01:49:31;;;;;;;0.57;0.30;;;11.70;99.90;;;;;;5079650;28;20091;-75
2023/09/25 01:51:56;;;;;;;1.02;0.60;;;11.70;99.90;;;;;;5110180;27;20079;-74
2023/09/25 01:54:22;;;;;;;0.40;0.30;;;11.70;99.90;;;;;;5082482;28;20382;-75
2023/09/25 01:56:48;;;;;;;3.03;0.75;;;11.70;99.90;;;;;;5083180;28;20044;-75
2023/09/25 01:59:14;;;;;;;0.70;0.40;;;11.70;99.90;;;;;;5080092;28;20037;-75
2023/09/25 02:01:40;;;;;;;0.52;0.47;;;11.70;99.90;;;;;;5061671;28;20038;-75
2023/09/25 02:04:07;;;;;;;0.73;0.50;;;11.70;99.90;;;;;;5079530;28;20182;-74
2023/09/25 02:06:33;;;;;;;1.40;0.82;;;11.70;99.90;;;;;;5113152;27;20440;-75
2023/09/25 02:08:59;;;;;;;0.52;0.40;;;11.70;99.90;;;;;;5081181;28;20352;-75
2023/09/25 02:11:25;;;;;;;1.45;0.43;;;11.70;99.90;;;;;;5082759;28;20032;-75
2023/09/25 02:13:51;;;;;;;1.10;0.50;;;11.70;99.90;;;;;;5080627;28;20384;-75
2023/09/25 02:16:18;;;;;;;1.30;0.40;;;11.70;99.90;;;;;;5084086;28;20051;-75
2023/09/25 02:18:43;;;;;;;2.25;0.55;;;11.80;99.90;;;;;;5084480;28;20079;-74
2023/09/25 02:21:09;;;;;;;0.80;0.50;;;11.80;99.90;;;;;;5076991;28;20526;-75
2023/09/25 02:23:36;;;;;;;0.40;0.30;;;11.80;99.90;;;;;;5082757;28;20043;-75
2023/09/25 02:26:01;;;;;;;0.73;0.40;;;11.80;99.90;;;;;;5082175;28;20036;-75
2023/09/25 02:28:27;;;;;;;2.40;0.70;;;11.80;99.90;;;;;;5069393;28;20081;-75
2023/09/25 02:30:52;;;;;;;0.65;0.40;;;11.80;99.90;;;;;;5064441;28;20089;-75
2023/09/25 02:33:18;;;;;;;0.70;0.30;;;11.80;99.90;;;;;;5064024;28;20039;-75
2023/09/25 02:35:44;;;;;;;2.65;0.70;;;11.70;99.90;;;;;;5114867;27;20143;-75
2023/09/25 02:38:10;;;;;;;0.57;0.28;;;11.80;99.90;;;;;;5087867;28;20417;-74
2023/09/25 02:40:35;;;;;;;0.30;0.30;;;11.70;99.90;;;;;;5086264;28;20032;-75
2023/09/25 02:43:01;;;;;;;0.60;0.38;;;11.70;99.90;;;;;;5075671;28;20032;-75
2023/09/25 02:45:27;;;;;;;0.60;0.40;;;11.80;99.90;;;;;;5081436;28;20127;-76
2023/09/25 02:47:52;;;;;;;0.52;0.47;;;11.70;99.90;;;;;;5082060;28;20067;-73
2023/09/25 02:50:18;;;;;;;0.82;0.38;;;11.70;99.90;;;;;;5078219;28;20052;-74
2023/09/25 02:52:44;;;;;;;1.55;0.55;;;11.70;99.90;;;;;;5081138;28;20068;-75
2023/09/25 02:55:11;;;;;;;1.73;0.73;;;11.70;99.90;;;;;;5068279;28;20139;-76
2023/09/25 02:57:36;;;;;;;3.30;0.45;;;11.70;99.90;;;;;;5113789;27;20128;-75
2023/09/25 03:00:10;;;;;;;0.88;0.60;;;11.70;99.90;;;;;;5081154;28;20519;-75
2023/09/25 03:02:37;;;;;;;2.03;0.55;;;11.60;99.90;;;;;;5093736;28;20032;-75
2023/09/25 03:05:05;;;;;;;1.65;0.60;;;11.60;99.90;;;;;;5112729;27;20048;-75
2023/09/25 03:07:31;;;;;;;1.33;0.68;;;11.60;99.90;;;;;;5060435;28;20045;-75
2023/09/25 03:09:56;;;;;;;1.52;0.60;;;11.60;99.90;;;;;;5078519;28;20036;-75
2023/09/25 03:12:22;;;;;;;0.90;0.40;;;11.50;99.90;;;;;;5093089;28;20040;-75
2023/09/25 03:14:48;;;;;;;0.52;0.32;;;11.50;99.90;;;;;;5077791;28;20059;-75
2023/09/25 03:17:14;;;;;;;1.15;0.75;;;11.50;99.90;;;;;;5064812;28;20059;-75
2023/09/25 03:19:40;;;;;;;2.50;0.80;;;11.50;99.90;;;;;;5063916;28;20032;-74
2023/09/25 03:22:06;;;;;;;1.83;0.60;;;11.50;99.90;;;;;;5082169;28;20024;-75
2023/09/25 03:24:32;;;;;;;0.98;0.60;;;11.50;99.90;;;;;;5112485;27;20161;-75
2023/09/25 03:26:57;;;;;;;1.10;0.47;;;11.40;99.90;;;;;;5078007;28;20086;-68
2023/09/25 03:29:23;;;;;;;0.55;0.40;;;11.50;99.90;;;;;;5079270;28;20463;-68
2023/09/25 03:31:50;;;;;;;1.00;0.88;;;11.40;99.90;;;;;;5117515;27;20090;-68
2023/09/25 03:34:15;;;;;;;0.93;0.52;;;11.40;99.90;;;;;;5078510;28;20131;-69
2023/09/25 03:36:41;;;;;;;0.82;0.50;;;11.40;99.90;;;;;;5064837;28;20504;-69
2023/09/25 03:39:07;;;;;;;1.15;0.50;;;11.40;99.90;;;;;;5077952;28;20474;-68
2023/09/25 03:41:32;;;;;;;0.60;0.30;;;11.40;99.90;;;;;;5079376;28;20456;-69
2023/09/25 03:43:58;;;;;;;1.27;0.80;;;11.40;99.90;;;;;;5080863;28;20033;-68
2023/09/25 03:46:24;;;;;;;1.05;0.40;;;11.40;99.90;;;;;;5064402;28;20089;-69
2023/09/25 03:48:49;;;;;;;0.73;0.60;;;11.40;99.90;;;;;;5078218;28;20158;-69
2023/09/25 03:51:15;;;;;;;0.52;0.45;;;11.30;99.90;;;;;;5080780;28;20048;-68
2023/09/25 03:53:41;;;;;;;1.08;0.60;;;11.40;99.90;;;;;;5080396;28;20048;-69
2023/09/25 03:56:06;;;;;;;2.53;0.90;;;11.40;99.90;;;;;;5076340;28;20428;-68
2023/09/25 03:58:32;;;;;;;1.17;0.82;;;11.40;99.90;;;;;;5087183;28;20036;-68
2023/09/25 04:00:59;;;;;;;1.27;0.88;;;11.40;99.90;;;;;;5109624;27;20059;-68
2023/09/25 04:03:25;;;;;;;0.82;0.50;;;11.40;99.90;;;;;;5062004;28;20125;-68
2023/09/25 04:05:50;;;;;;;0.40;0.30;;;11.40;99.90;;;;;;5067873;28;20509;-70
2023/09/25 04:08:16;;;;;;;1.17;0.50;;;11.50;99.90;;;;;;5083880;28;20094;-68
2023/09/25 04:10:43;;;;;;;4.90;0.98;;;11.40;99.90;;;;;;5077909;28;20541;-68
2023/09/25 04:13:09;;;;;;;0.45;0.38;;;11.50;99.90;;;;;;5081359;28;20389;-68
2023/09/25 04:15:35;;;;;;;0.90;0.70;;;11.50;99.90;;;;;;5114910;27;20144;-68
2023/09/25 04:18:01;;;;;;;0.45;0.40;;;11.50;99.90;;;;;;5082666;28;20044;-68
2023/09/25 04:20:27;;;;;;;2.25;0.70;;;11.50;99.90;;;;;;5078164;28;20042;-69
2023/09/25 04:22:55;;;;;;;1.63;0.70;;;11.50;99.90;;;;;;5083579;28;20032;-69
2023/09/25 04:25:21;;;;;;;0.73;0.63;;;11.50;99.90;;;;;;5079527;28;20032;-69
2023/09/25 04:27:54;;;;;;;4.80;0.88;;;11.50;99.90;;;;;;5098056;28;20032;-69
2023/09/25 04:30:20;;;;;;;1.02;0.52;;;11.50;99.90;;;;;;5111883;27;20044;-69
2023/09/25 04:32:48;;;;;;;0.90;0.47;;;11.40;99.90;;;;;;5108259;27;20048;-69
2023/09/25 04:35:18;;;;;;;0.80;0.45;;;11.50;99.90;;;;;;5112414;27;20150;-69
2023/09/25 04:37:43;;;;;;;0.75;0.60;;;11.50;99.90;;;;;;5073735;28;20178;-68
2023/09/25 04:40:22;;;;;;;2.88;0.85;;;11.50;99.90;;;;;;5075533;28;20123;-68
2023/09/25 04:42:49;;;;;;;1.00;0.57;;;11.50;99.90;;;;;;5109642;27;20060;-68
2023/09/25 04:45:18;;;;;;;2.08;0.93;;;11.50;99.90;;;;;;5065644;28;20181;-68
2023/09/25 04:47:53;;;;;;;1.27;0.50;;;11.50;99.90;;;;;;5081741;28;20067;-68
2023/09/25 04:50:20;;;;;;;1.83;0.30;;;11.50;99.90;;;;;;5079926;28;20040;-69
2023/09/25 04:52:46;;;;;;;1.02;0.43;;;11.60;99.90;;;;;;5076649;28;20392;-68
2023/09/25 04:55:15;;;;;;;1.35;0.45;;;11.60;99.90;;;;;;5082142;28;20063;-69
2023/09/25 04:57:42;;;;;;;1.15;0.45;;;11.60;99.90;;;;;;5078714;28;20275;-68
2023/09/25 05:02:46;;;;;;;1.30;1.10;;;11.60;99.90;;;;;;5109847;27;20055;-68
2023/09/25 05:05:16;;;;;;;0.57;0.40;;;11.60;99.90;;;;;;5063544;28;20069;-69
2023/09/25 05:07:43;;;;;;;0.77;0.45;;;11.60;99.90;;;;;;5073394;28;20043;-70
2023/09/25 05:10:10;;;;;;;0.77;0.47;;;11.50;99.90;;;;;;5073861;28;20082;-70
2023/09/25 05:12:39;;;;;;;1.25;0.68;;;11.60;99.90;;;;;;5094746;28;20130;-71
2023/09/25 05:15:08;;;;;;;0.63;0.30;;;11.60;99.90;;;;;;5075313;28;20060;-68
2023/09/25 05:17:41;;;;;;;4.45;0.82;;;11.50;99.90;;;;;;5106327;27;20048;-68
2023/09/25 05:20:15;;;;;;;1.00;0.55;;;11.50;99.90;;;;;;5110681;27;20032;-69
2023/09/25 05:22:42;;;;;;;1.17;0.60;;;11.60;99.90;;;;;;5078852;28;20197;-69
2023/09/25 05:25:10;;;;;;;1.65;0.60;;;11.60;99.90;;;;;;5081405;28;20865;-68
2023/09/25 05:27:41;;;;;;;0.98;0.65;;;11.60;99.90;;;;;;5079059;28;20059;-69
2023/09/25 05:30:10;;;;;;;0.80;0.60;;;11.60;99.90;;;;;;5097234;28;20042;-69
2023/09/25 05:32:36;;;;;;;1.17;0.50;;;11.50;99.90;;;;;;5093629;28;20170;-69
2023/09/25 05:35:04;;;;;;;0.95;0.50;;;11.50;99.90;;;;;;5108124;28;20044;-69
2023/09/25 05:37:30;;;;;;;1.20;0.40;;;11.50;99.90;;;;;;5093177;28;20456;-69
2023/09/25 05:39:56;;;;;;;1.13;0.60;;;11.50;99.90;;;;;;5108156;28;20040;-69
2023/09/25 05:42:21;;;;;;;0.60;0.50;;;11.60;99.90;;;;;;5108954;28;20043;-70
2023/09/25 05:44:47;;;;;;;0.65;0.40;;;11.60;99.90;;;;;;5075007;28;20033;-70
2023/09/25 05:47:13;;;;;;;0.93;0.40;;;11.60;99.90;;;;;;5072901;28;20106;-69
2023/09/25 05:49:38;;;;;;;0.98;0.55;;;11.60;99.90;;;;;;5080653;28;20076;-70
2023/09/25 05:52:04;;;;;;;1.92;0.60;;;11.60;99.90;;;;;;5112983;28;20517;-70
2023/09/25 05:54:31;;;;;;;2.50;0.30;;;11.70;99.90;;;;;;5074048;28;20105;-70
2023/09/25 05:56:57;;;;;;;2.60;0.77;;;11.70;99.90;;;;;;5107098;28;20049;-71
2023/09/25 05:59:22;;;;;;;2.00;0.60;;;11.70;99.90;;;;;;5092754;28;20041;-70
2023/09/25 06:01:48;;;;;;;1.42;0.75;;;11.80;99.90;;;;;;5075866;28;20460;-69
2023/09/25 06:04:16;;;;;;;2.28;0.88;;;11.80;99.90;;;;;;5070591;28;20123;-70
2023/09/25 06:06:42;;;;;;;1.85;1.08;;;11.90;99.90;;;;;;5076246;28;20168;-70
2023/09/25 06:09:12;;;;;;;1.60;0.43;;;11.90;99.90;;;;;;5057396;28;20368;-70
2023/09/25 06:11:39;;;;;;;1.92;0.55;;;12.00;99.90;;;;;;5075591;28;20040;-71
2023/09/25 06:14:05;;;;;;;0.95;0.63;;;12.00;99.90;;;;;;5112756;28;20056;-69
2023/09/25 06:16:34;;;;;;;0.50;0.38;;;12.10;99.90;;;;;;5101397;28;20657;-71
2023/09/25 06:18:59;;;;;;;1.15;0.50;;;12.20;99.90;;;;;;5072779;28;20115;-70
2023/09/25 06:21:25;;;;;;;0.82;0.45;;;12.30;99.90;;;;;;5079559;28;20038;-70
2023/09/25 06:23:52;;;;;;;0.45;0.40;;;12.30;99.90;;;;;;5114262;28;20048;-69
2023/09/25 06:26:18;;;;;;;0.55;0.43;;;12.30;99.90;;;;;;5078955;28;20078;-69
2023/09/25 06:28:45;;;;;;;0.55;0.32;;;12.40;99.90;;;;;;5117522;27;20035;-75
2023/09/25 06:31:12;;;;;;;0.57;0.30;;;12.40;99.90;;;;;;5115491;27;20048;-74
2023/09/25 06:33:38;;;;;;;0.52;0.40;;;12.50;99.90;;;;;;5077550;28;20615;-74
2023/09/25 06:36:03;;;;;;;1.02;0.70;;;12.50;99.90;;;;;;5117353;27;20039;-74
2023/09/25 06:38:29;;;;;;;1.20;0.40;;;12.60;99.90;;;;;;5083257;28;20063;-75
2023/09/25 06:40:55;;;;;;;1.08;0.52;;;12.60;99.90;;;;;;5067919;28;20441;-74
2023/09/25 06:43:21;;;;;;;1.00;0.60;;;12.60;99.90;;;;;;5099885;28;20085;-74
2023/09/25 06:45:47;;;;;;;0.85;0.52;;;12.70;99.90;;;;;;5118517;27;20039;-74
2023/09/25 06:48:12;;;;;;;1.77;0.82;;;12.80;99.90;;;;;;5120309;27;20051;-74
2023/09/25 06:50:38;;;;;;;2.45;0.90;;;12.90;99.90;;;;;;5080570;28;20044;-74
2023/09/25 06:53:04;;;;;;;2.38;0.70;;;12.90;99.90;;;;;;5115848;27;20031;-74
2023/09/25 06:55:30;;;;;;;1.13;0.50;;;13.00;99.90;;;;;;5086061;28;20177;-74
2023/09/25 06:57:56;;;;;;;1.95;0.60;;;13.10;99.90;;;;;;5116152;27;20495;-74
2023/09/25 07:00:23;;;;;;;1.25;0.70;;;13.20;99.90;;;;;;5112194;27;20907;-73
2023/09/25 07:02:50;;;;;;;0.52;0.30;;;13.30;99.90;;;;;;5081728;28;20074;-72
2023/09/25 07:05:16;;;;;;;0.85;0.43;;;13.50;99.90;;;;;;5118382;27;20065;-73
2023/09/25 07:07:42;;;;;;;1.67;0.50;;;13.50;99.90;;;;;;5112030;27;20134;-74
2023/09/25 07:10:10;;;;;;;1.25;0.75;;;13.60;99.90;;;;;;5078672;28;20142;-74
2023/09/25 07:12:36;;;;;;;2.30;0.90;;;13.80;99.90;;;;;;5077764;28;20105;-73
2023/09/25 07:15:02;;;;;;;0.50;0.28;;;13.80;99.90;;;;;;5115674;27;20070;-74
2023/09/25 07:17:29;;;;;;;1.25;0.63;;;14.00;99.90;;;;;;5083621;28;20058;-74
2023/09/25 07:19:55;;;;;;;0.73;0.50;;;14.00;99.90;;;;;;5086872;28;20069;-74
2023/09/25 07:22:23;;;;;;;1.02;0.55;;;14.10;99.90;;;;;;5115603;27;20051;-75
2023/09/25 07:24:50;;;;;;;1.27;0.50;;;14.20;99.90;;;;;;5084514;28;20043;-73
2023/09/25 07:27:16;;;;;;;2.65;0.30;;;14.20;99.90;;;;;;5116966;27;20043;-75
2023/09/25 07:29:46;;;;;;;0.82;0.40;;;14.20;99.90;;;;;;5067295;28;20044;-74
2023/09/25 07:32:12;;;;;;;1.17;0.50;;;14.30;99.90;;;;;;5073171;28;20379;-73
2023/09/25 07:34:42;;;;;;;0.55;0.40;;;14.40;99.90;;;;;;5081006;28;20036;-74
2023/09/25 07:37:08;;;;;;;1.38;0.50;;;14.50;99.90;;;;;;5087925;28;20044;-74
2023/09/25 07:39:38;;;;;;;3.03;0.45;;;14.60;99.90;;;;;;5078531;28;20085;-74
2023/09/25 07:42:05;;;;;;;0.55;0.28;;;14.50;99.90;;;;;;5089378;28;20419;-74
2023/09/25 07:44:33;;;;;;;1.15;0.77;;;14.60;99.90;;;;;;5062561;28;20040;-74
2023/09/25 07:47:07;;;;;;;0.57;0.40;;;14.70;99.90;;;;;;5081948;28;20440;-74
2023/09/25 07:49:45;;;;;;;1.75;0.30;;;14.80;99.90;;;;;;5111990;27;20036;-75
2023/09/25 07:52:16;;;;;;;5.68;0.98;;;15.00;99.90;;;;;;5083293;28;20114;-75
2023/09/25 07:54:46;;;;;;;1.23;0.50;;;15.10;99.90;;;;;;5121489;27;20297;-75
2023/09/25 07:57:16;;;;;;;1.38;0.57;;;15.40;99.90;;;;;;5079470;28;20044;-75
2023/09/25 07:59:42;;;;;;;1.35;0.40;;;15.70;99.90;;;;;;5119677;27;20078;-75
2023/09/25 08:02:08;;;;;;;1.13;0.70;;;15.90;99.90;;;;;;5083672;28;20081;-75
2023/09/25 08:04:38;;;;;;;0.28;0.20;;;16.10;99.90;;;;;;5121862;27;20472;-75
2023/09/25 08:07:04;;;;;;;0.40;0.30;;;16.40;99.90;;;;;;5081924;28;20032;-76
2023/09/25 08:09:31;;;;;;;1.02;0.38;;;16.50;99.90;;;;;;5114195;27;20200;-76
2023/09/25 08:11:56;;;;;;;0.65;0.35;;;16.80;99.90;;;;;;5080406;28;20100;-75
2023/09/25 08:14:23;;;;;;;1.08;0.32;;;17.00;99.90;;;;;;5085874;28;20039;-76
2023/09/25 08:16:49;;;;;;;0.95;0.30;;;17.30;99.90;;;;;;5096350;28;20079;-75
2023/09/25 08:19:17;;;;;;;1.52;0.43;;;17.60;99.90;;;;;;5115489;27;20040;-76
2023/09/25 08:21:44;;;;;;;1.85;0.75;;;17.60;99.90;;;;;;5120850;27;20031;-75
2023/09/25 08:24:09;;;;;;;0.77;0.55;;;17.50;99.90;;;;;;5081928;28;20039;-75
2023/09/25 08:26:35;;;;;;;1.08;0.35;;;17.30;99.90;;;;;;5085916;28;20126;-76
2023/09/25 08:29:05;;;;;;;1.23;0.30;;;17.10;99.90;;;;;;5117052;27;20047;-75
2023/09/25 08:31:34;;;;;;;0.82;0.40;;;17.00;99.90;;;;;;5079122;28;20044;-76
2023/09/25 08:34:00;;;;;;;0.73;0.30;;;17.00;99.90;;;;;;5086109;28;20040;-76
2023/09/25 08:36:25;;;;;;;1.13;0.40;;;17.00;99.90;;;;;;5115527;27;20040;-76
2023/09/25 08:38:51;;;;;;;3.30;0.43;;;17.10;99.90;;;;;;5113133;27;20051;-76
2023/09/25 08:41:19;;;;;;;0.70;0.30;;;17.30;99.90;;;;;;5082101;28;20801;-76
2023/09/25 08:43:46;;;;;;;0.88;0.45;;;17.80;99.90;;;;;;5094681;28;20036;-76
2023/09/25 08:46:13;;;;;;;0.50;0.30;;;18.30;99.90;;;;;;5082878;28;20399;-76
2023/09/25 08:48:38;;;;;;;1.42;0.60;;;19.00;99.90;;;;;;5066756;28;20050;-75
2023/09/25 08:51:05;;;;;;;1.08;0.40;;;19.60;99.90;;;;;;5115002;27;20040;-76
2023/09/25 08:53:33;;;;;;;0.52;0.40;;;20.20;99.90;;;;;;5090154;28;20395;-76
2023/09/25 08:56:00;;;;;;;0.75;0.20;;;21.10;99.90;;;;;;5113074;27;20391;-73
2023/09/25 08:58:26;;;;;;;0.43;0.20;;;21.60;99.90;;;;;;5077638;28;20031;-73
2023/09/25 09:00:53;;;;;;;1.10;0.20;;;21.70;99.90;;;;;;5119138;27;20042;-75
2023/09/25 09:03:19;;;;;;;2.47;0.25;;;22.00;99.90;;;;;;5084150;28;20036;-75
2023/09/25 09:05:46;;;;;;;1.92;0.50;;;22.30;99.90;;;;;;5124818;27;20112;-75
2023/09/25 09:08:16;;;;;;;1.02;0.20;;;22.60;99.90;;;;;;5124288;27;20325;-75
2023/09/25 09:10:42;;;;;;;1.67;0.22;;;22.60;99.90;;;;;;5090859;28;20046;-75
2023/09/25 09:13:11;;;;;;;0.90;0.40;;;22.10;99.90;;;;;;5092107;28;20039;-75
2023/09/25 09:15:38;;;;;;;0.35;0.20;;;21.60;99.90;;;;;;5123476;27;20055;-75
2023/09/25 09:18:21;;;;;;;1.13;0.28;;;21.10;99.90;;;;;;5125692;27;20567;-75
2023/09/25 09:20:47;;;;;;;1.45;0.22;;;21.00;99.90;;;;;;5067561;28;20069;-75
2023/09/25 09:23:14;;;;;;;0.60;0.28;;;21.10;99.90;;;;;;5093810;28;20040;-76
2023/09/25 09:25:44;;;;;;;0.17;0.10;;;21.40;99.90;;;;;;5121575;27;20048;-76
2023/09/25 09:28:09;;;;;;;1.17;0.20;;;21.30;99.90;;;;;;5092786;28;20042;-75
2023/09/25 09:30:36;;;;;;;0.70;0.22;;;21.50;99.90;;;;;;5122113;27;20126;-76
2023/09/25 09:33:03;;;;;;;1.48;0.20;;;21.70;99.90;;;;;;5100579;28;20035;-76
2023/09/25 09:35:29;;;;;;;2.00;0.50;;;21.80;99.90;;;;;;5084405;28;20431;-75
2023/09/25 09:37:56;;;;;;;1.75;0.20;;;21.80;99.90;;;;;;5117281;28;20036;-76
2023/09/25 09:40:26;;;;;;;0.40;0.10;;;21.70;99.90;;;;;;5090718;28;20040;-75
2023/09/25 09:42:53;;;;;;;0.55;0.20;;;21.50;99.90;;;;;;5122694;28;20038;-75
2023/09/25 09:45:19;;;;;;;0.73;0.43;;;21.50;99.90;;;;;;5089045;28;20055;-75
2023/09/25 09:47:47;;;;;;;1.50;0.30;;;21.60;99.90;;;;;;5116352;28;20084;-76
2023/09/25 09:50:18;;;;;;;0.45;0.28;;;21.80;99.90;;;;;;5116766;28;20431;-75
2023/09/25 09:52:44;;;;;;;1.23;0.20;;;22.00;99.90;;;;;;5086107;28;20040;-76
2023/09/25 09:55:13;;;;;;;1.08;0.30;;;22.50;99.90;;;;;;5062004;28;20040;-76
2023/09/25 09:57:39;;;;;;;0.85;0.35;;;22.70;99.90;;;;;;5097286;28;20051;-75
2023/09/25 10:00:07;;;;;;;1.02;0.30;;;23.00;99.90;;;;;;5102174;28;20048;-74
2023/09/25 10:02:34;;;;;;;0.47;0.20;;;23.20;99.90;;;;;;5121581;27;20055;-74
2023/09/25 10:05:00;;;;;;;0.30;0.13;;;23.20;99.90;;;;;;5087082;28;20503;-76
2023/09/25 10:07:27;;;;;;;0.80;0.22;;;23.30;99.90;;;;;;5121627;27;20127;-75
2023/09/25 10:10:06;;;;;;;1.15;0.20;;;23.60;99.90;;;;;;5119835;27;20122;-76
2023/09/25 10:12:48;;;;;;;0.40;0.10;;;23.90;99.90;;;;;;5125312;27;20135;-75
2023/09/25 10:15:21;;;;;;;0.28;0.10;;;24.10;99.90;;;;;;5091367;28;20052;-76
2023/09/25 10:17:48;;;;;;;0.30;0.17;;;24.10;99.90;;;;;;5116364;27;20560;-75
2023/09/25 10:20:36;;;;;;;1.67;0.10;;;24.00;99.90;;;;;;5086041;28;20032;-75
2023/09/25 10:23:21;;;;;;;2.10;0.20;;;23.90;99.90;;;;;;5115335;27;20040;-75
2023/09/25 10:25:55;;;;;;;1.63;0.28;;;23.90;99.90;;;;;;5079636;28;20043;-75
2023/09/25 10:28:29;;;;;;;0.30;0.10;;;23.90;99.90;;;;;;5086290;28;20388;-76
2023/09/25 10:31:00;;;;;;;0.90;0.10;;;24.10;99.90;;;;;;5090531;28;20039;-75
2023/09/25 10:33:33;;;;;;;0.43;0.13;;;24.10;99.90;;;;;;5116406;27;20444;-76
2023/09/25 10:36:04;;;;;;;1.90;0.30;;;23.90;99.90;;;;;;5117398;27;20364;-75
2023/09/25 10:38:36;;;;;;;0.60;0.10;;;23.70;99.90;;;;;;5085224;28;20032;-74
2023/09/25 10:41:06;;;;;;;1.08;0.10;;;23.70;99.90;;;;;;5096721;28;20067;-75
2023/09/25 10:43:34;;;;;;;0.30;0.20;;;23.70;99.90;;;;;;5072123;28;20550;-74
2023/09/25 10:46:01;;;;;;;0.28;0.10;;;23.90;99.90;;;;;;5124093;27;20077;-74
2023/09/25 10:48:27;;;;;;;0.30;0.10;;;24.20;99.90;;;;;;5086106;28;20032;-75
2023/09/25 10:50:54;;;;;;;0.98;0.10;;;24.50;99.90;;;;;;5087571;28;20028;-75
2023/09/25 10:53:29;;;;;;;0.15;0.03;;;24.80;99.90;;;;;;5126340;27;20036;-76
2023/09/25 10:55:54;;;;;;;0.38;0.10;;;24.90;99.90;;;;;;5100064;28;20036;-75
2023/09/25 10:58:21;;;;;;;0.63;0.10;;;25.00;99.90;;;;;;5082536;28;20082;-73
2023/09/25 11:00:49;;;;;;;1.35;0.10;;;25.10;99.90;;;;;;5121288;27;20044;-73
2023/09/25 11:03:15;;;;;;;1.63;0.10;;;25.30;99.90;;;;;;5121728;27;20038;-73
2023/09/25 11:05:41;;;;;;;0.20;0.00;;;25.20;99.90;;;;;;5078148;28;20171;-75
2023/09/25 11:08:15;;;;;;;0.30;0.20;;;25.20;99.90;;;;;;5075863;28;20044;-75
2023/09/25 11:10:41;;;;;;;0.50;0.13;;;25.10;99.90;;;;;;5093857;28;20040;-78
2023/09/25 11:13:08;;;;;;;0.20;0.10;;;25.10;99.90;;;;;;5126757;27;20303;-75
2023/09/25 11:15:38;;;;;;;0.38;0.10;;;25.30;99.90;;;;;;5120555;27;20392;-74
2023/09/25 11:18:07;;;;;;;0.40;0.22;;;25.60;99.90;;;;;;5080117;28;20060;-74
2023/09/25 11:20:33;;;;;;;1.10;0.20;;;25.60;99.90;;;;;;5082321;28;20122;-74
2023/09/25 11:23:09;;;;;;;0.32;0.08;;;25.70;99.90;;;;;;5064836;28;20071;-75
2023/09/25 11:25:50;;;;;;;0.15;0.00;;;25.70;99.90;;;;;;5094430;28;20123;-75
2023/09/25 11:28:18;;;;;;;0.25;0.10;;;25.90;99.90;;;;;;5090420;28;20046;-75
2023/09/25 11:30:46;;;;;;;0.70;0.32;;;26.30;99.90;;;;;;5088948;28;20067;-74
2023/09/25 11:33:18;;;;;;;0.20;0.03;;;26.50;99.90;;;;;;5123476;27;20053;-74
2023/09/25 11:35:45;;;;;;;0.40;0.22;;;26.50;99.90;;;;;;5069112;28;20044;-74
2023/09/25 11:38:21;;;;;;;1.40;0.10;;;26.50;99.90;;;;;;5086584;28;20044;-74
2023/09/25 11:40:47;;;;;;;0.55;0.10;;;26.50;99.90;;;;;;5121811;27;20119;-74
2023/09/25 11:43:13;;;;;;;0.85;0.20;;;26.60;99.90;;;;;;5088550;28;20501;-74
2023/09/25 11:45:40;;;;;;;1.40;0.38;;;26.50;99.90;;;;;;5086539;28;20070;-74
2023/09/25 11:48:06;;;;;;;0.45;0.10;;;26.40;99.90;;;;;;5073646;28;20539;-74
2023/09/25 11:50:32;;;;;;;0.80;0.13;;;26.40;99.90;;;;;;5084575;28;20039;-74
2023/09/25 11:52:58;;;;;;;0.98;0.10;;;26.40;99.90;;;;;;5082347;28;20400;-74
2023/09/25 11:55:24;;;;;;;1.73;0.13;;;26.50;99.90;;;;;;5108649;28;20050;-74
2023/09/25 11:57:49;;;;;;;0.20;0.10;;;26.60;99.90;;;;;;5115496;27;20139;-74
2023/09/25 12:00:18;;;;;;;0.80;0.20;;;26.60;99.90;;;;;;5118745;27;20142;-74
2023/09/25 12:02:46;;;;;;;0.47;0.20;;;26.40;99.90;;;;;;5083704;28;20040;-74
2023/09/25 12:05:12;;;;;;;0.52;0.10;;;26.30;99.90;;;;;;5089090;28;20060;-74
2023/09/25 12:07:38;;;;;;;0.55;0.15;;;26.60;99.90;;;;;;5083668;28;20423;-74
2023/09/25 12:10:05;;;;;;;0.22;0.00;;;26.50;99.90;;;;;;5082265;28;20040;-74
2023/09/25 12:12:39;;;;;;;0.03;0.00;;;26.40;99.90;;;;;;5120377;27;20040;-73
2023/09/25 12:15:08;;;;;;;0.10;0.08;;;26.20;99.90;;;;;;5066819;28;20111;-75
2023/09/25 12:17:38;;;;;;;1.63;0.40;;;26.10;99.90;;;;;;5125765;27;20040;-75
2023/09/25 12:20:11;;;;;;;0.57;0.10;;;26.30;99.90;;;;;;5121562;27;20044;-75
2023/09/25 12:22:39;;;;;;;0.85;0.35;;;26.60;99.90;;;;;;5093876;28;20036;-75
2023/09/25 12:25:12;;;;;;;0.43;0.30;;;26.30;99.90;;;;;;5071111;28;20036;-75
2023/09/25 12:27:41;;;;;;;1.63;0.20;;;25.80;99.90;;;;;;5082110;28;20043;-75
2023/09/25 12:30:10;;;;;;;0.50;0.13;;;25.40;99.90;;;;;;5102919;28;20055;-75
2023/09/25 12:32:37;;;;;;;0.10;0.03;;;25.00;99.90;;;;;;5078434;28;20047;-75
2023/09/25 12:35:04;;;;;;;0.70;0.30;;;24.70;99.90;;;;;;5087758;28;20035;-75
2023/09/25 12:37:30;;;;;;;1.33;0.17;;;24.70;99.90;;;;;;5107984;28;20051;-74
2023/09/25 12:39:56;;;;;;;0.28;0.10;;;25.20;99.90;;;;;;5088570;28;20154;-74
2023/09/25 12:42:21;;;;;;;2.28;0.22;;;25.40;99.90;;;;;;5095519;28;20084;-74
2023/09/25 12:44:47;;;;;;;0.32;0.13;;;25.30;99.90;;;;;;5088066;28;20041;-74
2023/09/25 12:47:17;;;;;;;0.75;0.20;;;25.50;99.90;;;;;;5080124;28;20040;-73
2023/09/25 12:49:43;;;;;;;1.13;0.30;;;25.20;99.90;;;;;;5130690;27;20451;-72
2023/09/25 12:52:08;;;;;;;0.20;0.20;;;24.70;99.90;;;;;;5121745;27;20044;-72